Time;durP1;ratioP1;P1;durP2;ratioP2;P2;SDS_P1;SDS_P2;PMS_P1;PMS_P2;Temp;Humidity;BMP_temperature;BMP_pressure;BME280_temperature;BME280_humidity;BME280_pressure;Samples;Min_cycle;Max_cycle;Signal;HPM_P1;HPM_P2
2022/02/17 00:06:46;;;;;;;8.40;5.37;;;;;;;10.40;100.00;97308.71;713366;1174;114002;-77
2022/02/17 00:21:50;;;;;;;7.28;4.85;;;;;;;10.01;100.00;97276.33;713007;1173;114585;-77
2022/02/17 00:36:53;;;;;;;8.20;4.73;;;;;;;9.80;100.00;97215.34;712998;1174;114140;-77
2022/02/17 00:51:57;;;;;;;7.83;5.03;;;;;;;9.67;100.00;97129.00;715200;1174;114400;-78
2022/02/17 01:07:00;;;;;;;6.57;5.07;;;;;;;9.45;100.00;97060.45;714132;1174;113636;-75
2022/02/17 01:22:04;;;;;;;6.95;4.65;;;;;;;9.47;100.00;97001.64;714644;1174;113613;-75
2022/02/17 01:37:07;;;;;;;6.67;4.20;;;;;;;9.51;100.00;96905.22;713608;1174;113523;-75
2022/02/17 01:52:12;;;;;;;6.30;4.45;;;;;;;9.55;100.00;96820.05;712996;1174;114494;-76
2022/02/17 02:07:15;;;;;;;4.90;3.47;;;;;;;9.54;100.00;96775.79;713124;1174;115060;-75
2022/02/17 02:22:19;;;;;;;5.18;3.88;;;;;;;9.64;100.00;96694.98;712859;1174;114169;-73
2022/02/17 02:37:23;;;;;;;4.58;2.93;;;;;;;9.80;100.00;96659.58;713545;1175;114372;-78
2022/02/17 02:52:30;;;;;;;5.60;4.00;;;;;;;10.21;100.00;96582.11;713011;1174;114911;-72
2022/02/17 03:07:33;;;;;;;8.63;4.53;;;;;;;10.34;100.00;96588.99;712964;1174;113872;-74
2022/02/17 03:22:39;;;;;;;6.50;4.50;;;;;;;10.50;100.00;96532.55;713071;1174;114879;-73
2022/02/17 03:37:43;;;;;;;10.80;6.23;;;;;;;10.64;100.00;96539.17;713387;1174;114102;-74
2022/02/17 03:52:46;;;;;;;8.80;5.03;;;;;;;10.67;100.00;96645.39;713659;1174;115090;-73
2022/02/17 04:07:50;;;;;;;4.17;1.70;;;;;;;10.74;100.00;96583.19;713384;1174;114737;-73
2022/02/17 04:22:53;;;;;;;3.20;1.40;;;;;;;10.73;100.00;96578.96;713516;1174;114584;-74
2022/02/17 04:37:57;;;;;;;4.77;1.50;;;;;;;10.65;100.00;96674.45;713031;1174;115240;-72
2022/02/17 04:53:00;;;;;;;7.63;2.45;;;;;;;10.46;100.00;96675.52;713085;1174;114394;-73
2022/02/17 05:08:05;;;;;;;11.73;3.33;;;;;;;10.29;100.00;96665.65;713201;1174;115252;-73
2022/02/17 05:23:10;;;;;;;9.75;2.83;;;;;;;9.88;100.00;96661.11;713324;1174;114827;-74
2022/02/17 05:38:14;;;;;;;3.85;2.50;;;;;;;9.55;100.00;96667.50;713397;1174;113525;-78
2022/02/17 05:53:18;;;;;;;9.95;3.25;;;;;;;9.32;100.00;96650.62;713913;1174;113898;-78
2022/02/17 06:08:23;;;;;;;12.50;8.90;;;;;;;9.07;100.00;96588.69;713296;1174;114540;-77
2022/02/17 06:23:28;;;;;;;6.20;2.25;;;;;;;8.97;100.00;96617.95;714013;1174;115342;-76
2022/02/17 06:38:32;;;;;;;6.58;2.20;;;;;;;8.87;100.00;96664.67;714090;1174;115446;-78
2022/02/17 06:53:35;;;;;;;71.63;55.75;;;;;;;9.15;100.00;96627.63;716299;1174;113547;-78
2022/02/17 07:08:39;;;;;;;8.68;3.90;;;;;;;9.10;100.00;96635.30;715166;1174;114514;-75
2022/02/17 07:23:43;;;;;;;7.40;3.77;;;;;;;9.27;100.00;96593.71;714062;1174;115687;-79
2022/02/17 07:38:47;;;;;;;8.68;3.33;;;;;;;9.32;100.00;96645.39;714116;1174;114188;-75
2022/02/17 07:53:50;;;;;;;7.73;4.60;;;;;;;9.56;100.00;96632.47;715288;1174;114343;-77
2022/02/17 08:08:54;;;;;;;10.40;4.55;;;;;;;9.66;100.00;96620.47;714776;1174;113674;-78
2022/02/17 08:23:58;;;;;;;14.40;4.45;;;;;;;9.53;100.00;96622.42;714268;1174;113695;-77
2022/02/17 08:39:06;;;;;;;36.77;19.30;;;;;;;10.01;100.00;96595.48;715638;1174;114727;-76
2022/02/17 08:54:10;;;;;;;11.30;4.03;;;;;;;9.69;100.00;96614.00;715023;1174;115004;-80
2022/02/17 09:09:20;;;;;;;11.80;5.45;;;;;;;9.45;100.00;96613.86;717037;1174;114645;-79
2022/02/17 09:24:24;;;;;;;8.80;4.35;;;;;;;9.55;99.10;96634.27;716344;1174;113903;-80
2022/02/17 09:39:33;;;;;;;8.18;3.78;;;;;;;10.05;93.75;96648.22;717898;1174;114406;-80
2022/02/17 09:54:37;;;;;;;34.38;15.18;;;;;;;10.19;89.47;96669.80;715868;1174;114613;-79
2022/02/17 10:09:43;;;;;;;15.10;7.60;;;;;;;10.05;87.50;96669.17;715357;1174;113892;-79
2022/02/17 10:24:52;;;;;;;26.67;11.50;;;;;;;9.79;87.82;96713.77;714648;1174;113730;-80
2022/02/17 10:39:55;;;;;;;15.38;8.10;;;;;;;9.63;87.67;96716.92;714284;1173;114690;-80
2022/02/17 10:55:12;;;;;;;10.13;5.98;;;;;;;9.11;95.77;96738.89;715294;1174;114252;-79
2022/02/17 11:10:16;;;;;;;10.83;4.25;;;;;;;9.55;95.50;96717.21;714145;1174;114970;-79
2022/02/17 11:25:38;;;;;;;17.40;8.13;;;;;;;9.53;92.84;96737.55;715464;1174;114056;-83
2022/02/17 11:41:10;;;;;;;23.00;8.33;;;;;;;9.40;90.63;96754.97;716820;1174;114654;-79
2022/02/17 11:56:15;;;;;;;14.25;5.33;;;;;;;9.37;91.27;96765.88;716471;1174;113666;-82
2022/02/17 16:00:04;;;;;;;9.80;5.60;;;;;;;6.61;89.45;97592.37;714437;1172;39726;-88
2022/02/17 16:15:09;;;;;;;9.60;5.70;;;;;;;6.35;92.03;97627.41;715843;1174;114666;-77
2022/02/17 16:30:13;;;;;;;7.78;4.05;;;;;;;6.03;95.80;97689.09;713760;1174;114842;-77
2022/02/17 16:45:21;;;;;;;21.63;11.33;;;;;;;5.94;96.37;97731.72;713740;1174;114053;-77
2022/02/17 17:00:23;;;;;;;32.93;13.35;;;;;;;5.97;97.88;97783.42;713661;1174;114046;-77
2022/02/17 17:15:27;;;;;;;34.13;12.87;;;;;;;6.05;97.19;97830.27;713365;1175;114929;-77
2022/02/17 17:30:30;;;;;;;53.70;19.63;;;;;;;6.22;95.43;97864.09;713365;1175;114477;-76
2022/02/17 17:45:39;;;;;;;45.08;18.60;;;;;;;6.15;93.20;97893.38;713830;1175;113939;-75
2022/02/17 18:00:45;;;;;;;40.03;15.60;;;;;;;6.30;91.78;97934.37;713616;1174;114438;-76
2022/02/17 18:15:47;;;;;;;28.45;11.23;;;;;;;6.39;89.29;97949.00;713483;1177;114634;-76
2022/02/17 18:30:51;;;;;;;32.00;13.13;;;;;;;6.37;87.44;97957.95;713282;1175;115086;-76
2022/02/17 18:45:54;;;;;;;35.30;15.10;;;;;;;6.48;86.37;97992.28;713349;1177;114899;-75
2022/02/17 19:00:59;;;;;;;18.20;7.07;;;;;;;6.57;85.80;97997.48;713649;1174;115137;-76
2022/02/17 19:16:02;;;;;;;16.85;7.50;;;;;;;6.63;84.81;97999.43;713244;1174;113744;-84
2022/02/17 19:31:05;;;;;;;24.48;8.83;;;;;;;6.40;88.02;98025.33;715767;1176;113604;-84
2022/02/17 19:46:09;;;;;;;15.93;6.43;;;;;;;5.50;94.16;98058.84;715654;1176;113679;-86
2022/02/17 20:01:14;;;;;;;16.97;5.83;;;;;;;5.23;96.73;98065.06;719707;1174;114446;-83
2022/02/17 20:16:18;;;;;;;13.47;5.30;;;;;;;5.38;98.63;98080.88;714684;1174;114120;-76
2022/02/17 20:31:21;;;;;;;10.80;5.08;;;;;;;5.60;100.00;98100.32;713684;1176;114913;-75
2022/02/17 21:01:46;;;;;;;11.97;5.30;;;;;;;6.05;100.00;98110.59;716722;1174;114635;-84
2022/02/17 21:16:55;;;;;;;14.10;5.27;;;;;;;6.15;100.00;98145.91;715987;1175;114311;-85
2022/02/17 21:31:58;;;;;;;10.07;4.87;;;;;;;6.09;100.00;98169.97;716076;1176;113848;-85
2022/02/17 21:47:02;;;;;;;16.45;5.20;;;;;;;6.09;100.00;98188.19;716733;1176;114581;-86
2022/02/17 22:02:06;;;;;;;10.88;4.18;;;;;;;6.07;100.00;98213.58;717843;1174;113979;-84
2022/02/17 22:17:10;;;;;;;5.45;2.78;;;;;;;6.19;100.00;98214.11;717452;1175;114187;-86
2022/02/17 22:32:12;;;;;;;12.43;4.37;;;;;;;6.11;100.00;98235.72;714586;1177;113772;-84
2022/02/17 22:47:15;;;;;;;8.45;3.65;;;;;;;6.09;100.00;98244.66;714296;1174;114899;-85
2022/02/17 23:02:18;;;;;;;8.18;3.55;;;;;;;6.09;100.00;98275.90;714026;1177;113780;-84
2022/02/17 23:32:41;;;;;;;5.95;2.50;;;;;;;6.13;100.00;98332.69;714779;1176;113790;-87
2022/02/17 23:47:43;;;;;;;5.03;2.78;;;;;;;6.27;100.00;98327.91;713609;1175;113982;-86
